Columbus, Ohio
Traffic Map
Current Weather Conditions
Columbus, Ohio
Overcast
Overcast
26°
Feels Like: 27°
Wind Chill: 26° Ceiling: 3000
Heat Index: 27° Visibility: 10mi
Dew Point: 19° Wind: 12mph
Humidity: 65% Direction: 270° (W)
Pressure: 29.94in Gusts: 0mph
Raw Report DataKCMH 021702Z 27010KT 10SM SCT023 BKN030 BKN050 OVC200 26/19 A2994 RMK AO2
Traffic Incident Summary
Active as of:
Severity:
Category:
InformationThere was an issue retrieving the traffic information for this location. Please try a different location or try again shortly.
Advertisements
Track Severe Weather on mobile